sensor_id;sensor_type;location;lat;lon;timestamp;pressure;altitude;pressure_sealevel;temperature;humidity
8890;BME280;4481;43.406;24.454;2022-10-17T00:01:51;79059.97;;;-144.09;96.92
8890;BME280;4481;43.406;24.454;2022-10-17T00:04:17;79059.97;;;-144.09;97.28
8890;BME280;4481;43.406;24.454;2022-10-17T00:06:43;79055.78;;;-144.09;96.99
8890;BME280;4481;43.406;24.454;2022-10-17T00:09:09;79057.88;;;-144.09;96.59
8890;BME280;4481;43.406;24.454;2022-10-17T00:11:36;79072.50;;;-144.09;97.19
8890;BME280;4481;43.406;24.454;2022-10-17T00:14:02;79062.06;;;-144.09;96.81
8890;BME280;4481;43.406;24.454;2022-10-17T00:16:30;79059.97;;;-144.09;96.23
8890;BME280;4481;43.406;24.454;2022-10-17T00:18:58;79059.97;;;-144.09;96.47
8890;BME280;4481;43.406;24.454;2022-10-17T00:21:25;79064.13;;;-144.09;96.45
8890;BME280;4481;43.406;24.454;2022-10-17T00:23:51;79064.13;;;-144.09;95.99
8890;BME280;4481;43.406;24.454;2022-10-17T00:26:18;79082.97;;;-144.09;96.30
8890;BME280;4481;43.406;24.454;2022-10-17T00:28:46;79078.78;;;-144.09;95.85
8890;BME280;4481;43.406;24.454;2022-10-17T00:31:13;79099.69;;;-144.09;96.50
8890;BME280;4481;43.406;24.454;2022-10-17T00:33:39;79101.78;;;-144.09;97.05
8890;BME280;4481;43.406;24.454;2022-10-17T00:36:07;79114.31;;;-144.09;97.06
8890;BME280;4481;43.406;24.454;2022-10-17T00:38:35;79128.97;;;-144.09;97.51
8890;BME280;4481;43.406;24.454;2022-10-17T00:41:01;79131.06;;;-144.09;97.61
8890;BME280;4481;43.406;24.454;2022-10-17T00:43:28;79118.50;;;-144.09;97.27
8890;BME280;4481;43.406;24.454;2022-10-17T00:45:55;79145.69;;;-144.09;97.91
8890;BME280;4481;43.406;24.454;2022-10-17T00:48:22;79139.44;;;-144.09;98.25
8890;BME280;4481;43.406;24.454;2022-10-17T00:50:49;79118.50;;;-144.09;97.51
8890;BME280;4481;43.406;24.454;2022-10-17T00:53:17;79124.78;;;-144.09;97.68
8890;BME280;4481;43.406;24.454;2022-10-17T00:55:47;79114.31;;;-144.09;97.43
8890;BME280;4481;43.406;24.454;2022-10-17T00:58:15;79118.50;;;-144.09;97.51
8890;BME280;4481;43.406;24.454;2022-10-17T01:00:43;79133.16;;;-144.09;98.48
8890;BME280;4481;43.406;24.454;2022-10-17T01:03:10;79124.78;;;-144.09;98.39
8890;BME280;4481;43.406;24.454;2022-10-17T01:05:37;79122.69;;;-144.09;98.34
8890;BME280;4481;43.406;24.454;2022-10-17T01:08:04;79124.78;;;-144.09;98.16
8890;BME280;4481;43.406;24.454;2022-10-17T01:10:36;79114.31;;;-144.09;98.36
8890;BME280;4481;43.406;24.454;2022-10-17T01:13:10;79108.06;;;-144.09;97.92
8890;BME280;4481;43.406;24.454;2022-10-17T01:15:45;79120.59;;;-144.09;98.29
8890;BME280;4481;43.406;24.454;2022-10-17T01:18:23;79108.06;;;-144.09;98.19
8890;BME280;4481;43.406;24.454;2022-10-17T01:27:01;79137.34;;;-144.09;98.65
8890;BME280;4481;43.406;24.454;2022-10-17T01:29:46;79151.97;;;-144.09;98.86
8890;BME280;4481;43.406;24.454;2022-10-17T01:32:21;79156.16;;;-144.09;98.90
8890;BME280;4481;43.406;24.454;2022-10-17T01:34:53;79137.34;;;-144.09;98.57
8890;BME280;4481;43.406;24.454;2022-10-17T01:37:26;79135.25;;;-144.09;98.71
8890;BME280;4481;43.406;24.454;2022-10-17T01:40:00;79131.06;;;-144.09;98.57
8890;BME280;4481;43.406;24.454;2022-10-17T01:42:32;79126.88;;;-144.09;98.77
8890;BME280;4481;43.406;24.454;2022-10-17T01:45:03;79110.16;;;-144.09;98.50
8890;BME280;4481;43.406;24.454;2022-10-17T01:47:33;79122.69;;;-144.09;98.77
8890;BME280;4481;43.406;24.454;2022-10-17T01:50:02;79126.88;;;-144.09;98.59
8890;BME280;4481;43.406;24.454;2022-10-17T01:52:32;79126.88;;;-144.09;98.52
8890;BME280;4481;43.406;24.454;2022-10-17T01:55:06;79118.50;;;-144.09;98.49
8890;BME280;4481;43.406;24.454;2022-10-17T01:57:36;79135.25;;;-144.09;99.13
8890;BME280;4481;43.406;24.454;2022-10-17T02:00:04;79139.44;;;-144.09;99.83
8890;BME280;4481;43.406;24.454;2022-10-17T02:02:34;79141.50;;;-144.09;100.00
8890;BME280;4481;43.406;24.454;2022-10-17T02:05:02;79126.88;;;-144.09;99.91
8890;BME280;4481;43.406;24.454;2022-10-17T02:07:29;79126.88;;;-144.09;100.00
8890;BME280;4481;43.406;24.454;2022-10-17T02:09:55;79131.06;;;-144.09;100.00
8890;BME280;4481;43.406;24.454;2022-10-17T02:12:31;79124.78;;;-144.09;99.83
8890;BME280;4481;43.406;24.454;2022-10-17T02:15:09;79141.50;;;-144.09;99.96
8890;BME280;4481;43.406;24.454;2022-10-17T02:17:44;79135.25;;;-144.09;99.82
8890;BME280;4481;43.406;24.454;2022-10-17T02:20:19;79128.97;;;-144.09;99.00
8890;BME280;4481;43.406;24.454;2022-10-17T02:22:52;79135.25;;;-144.09;99.17
8890;BME280;4481;43.406;24.454;2022-10-17T02:25:30;79135.25;;;-144.09;99.17
8890;BME280;4481;43.406;24.454;2022-10-17T02:28:07;79135.25;;;-144.09;98.88
8890;BME280;4481;43.406;24.454;2022-10-17T02:30:39;79160.34;;;-144.09;99.65
8890;BME280;4481;43.406;24.454;2022-10-17T02:33:11;79156.16;;;-144.09;99.70
8890;BME280;4481;43.406;24.454;2022-10-17T02:35:41;79164.50;;;-144.09;100.00
8890;BME280;4481;43.406;24.454;2022-10-17T02:38:10;79168.69;;;-144.09;100.00
8890;BME280;4481;43.406;24.454;2022-10-17T02:40:38;79170.78;;;-144.09;100.00
8890;BME280;4481;43.406;24.454;2022-10-17T02:43:06;79168.69;;;-144.09;100.00
8890;BME280;4481;43.406;24.454;2022-10-17T02:45:34;79174.97;;;-144.09;100.00
8890;BME280;4481;43.406;24.454;2022-10-17T02:48:04;79183.34;;;-144.09;100.00
8890;BME280;4481;43.406;24.454;2022-10-17T02:50:38;79187.53;;;-144.09;100.00
8890;BME280;4481;43.406;24.454;2022-10-17T02:53:11;79197.97;;;-144.09;100.00
8890;BME280;4481;43.406;24.454;2022-10-17T02:55:42;79187.53;;;-144.09;100.00
8890;BME280;4481;43.406;24.454;2022-10-17T02:58:15;79172.88;;;-144.09;99.26
8890;BME280;4481;43.406;24.454;2022-10-17T03:00:44;79164.50;;;-144.09;98.16
8890;BME280;4481;43.406;24.454;2022-10-17T03:03:21;79181.25;;;-144.09;98.12
8890;BME280;4481;43.406;24.454;2022-10-17T03:05:48;79197.97;;;-144.09;98.74
8890;BME280;4481;43.406;24.454;2022-10-17T03:08:15;79206.34;;;-144.09;98.74
8890;BME280;4481;43.406;24.454;2022-10-17T03:10:41;79208.44;;;-144.09;98.70
8890;BME280;4481;43.406;24.454;2022-10-17T03:13:07;79218.88;;;-144.09;98.94
8890;BME280;4481;43.406;24.454;2022-10-17T03:15:33;79239.78;;;-144.09;99.54
8890;BME280;4481;43.406;24.454;2022-10-17T03:17:59;79223.06;;;-144.09;99.54
8890;BME280;4481;43.406;24.454;2022-10-17T03:20:26;79231.44;;;-144.09;99.39
8890;BME280;4481;43.406;24.454;2022-10-17T03:22:52;79250.25;;;-144.09;100.00
8890;BME280;4481;43.406;24.454;2022-10-17T03:25:19;79227.25;;;-144.09;99.51
8890;BME280;4481;43.406;24.454;2022-10-17T03:27:45;79239.78;;;-144.09;99.40
8890;BME280;4481;43.406;24.454;2022-10-17T03:30:11;79243.97;;;-144.09;99.63
8890;BME280;4481;43.406;24.454;2022-10-17T03:32:37;79248.16;;;-144.09;99.54
8890;BME280;4481;43.406;24.454;2022-10-17T03:35:04;79248.16;;;-144.09;99.45
8890;BME280;4481;43.406;24.454;2022-10-17T03:37:30;79241.88;;;-144.09;98.93
8890;BME280;4481;43.406;24.454;2022-10-17T03:39:57;79229.34;;;-144.09;98.62
8890;BME280;4481;43.406;24.454;2022-10-17T03:42:23;79243.97;;;-144.09;98.29
8890;BME280;4481;43.406;24.454;2022-10-17T03:44:49;79241.88;;;-144.09;98.37
8890;BME280;4481;43.406;24.454;2022-10-17T03:47:15;79250.25;;;-144.09;98.42
8890;BME280;4481;43.406;24.454;2022-10-17T03:49:41;79254.44;;;-144.09;98.66
8890;BME280;4481;43.406;24.454;2022-10-17T03:52:10;79254.44;;;-144.09;98.52
8890;BME280;4481;43.406;24.454;2022-10-17T03:54:36;79256.53;;;-144.09;98.34
8890;BME280;4481;43.406;24.454;2022-10-17T03:57:03;79266.97;;;-144.09;98.67
8890;BME280;4481;43.406;24.454;2022-10-17T03:59:29;79271.16;;;-144.09;98.38
8890;BME280;4481;43.406;24.454;2022-10-17T04:01:55;79283.72;;;-144.09;99.25
8890;BME280;4481;43.406;24.454;2022-10-17T04:04:21;79277.44;;;-144.09;98.96
8890;BME280;4481;43.406;24.454;2022-10-17T04:06:48;79279.53;;;-144.09;98.89
8890;BME280;4481;43.406;24.454;2022-10-17T04:09:14;79298.34;;;-144.09;99.21
8890;BME280;4481;43.406;24.454;2022-10-17T04:11:40;79313.00;;;-144.09;99.57
8890;BME280;4481;43.406;24.454;2022-10-17T04:14:08;79319.25;;;-144.09;99.88
8890;BME280;4481;43.406;24.454;2022-10-17T04:16:34;79304.63;;;-144.09;99.45
8890;BME280;4481;43.406;24.454;2022-10-17T04:19:01;79300.44;;;-144.09;99.22
8890;BME280;4481;43.406;24.454;2022-10-17T04:21:27;79310.91;;;-144.09;99.39
8890;BME280;4481;43.406;24.454;2022-10-17T04:23:54;79296.25;;;-144.09;98.96
8890;BME280;4481;43.406;24.454;2022-10-17T04:26:20;79304.63;;;-144.09;99.15
8890;BME280;4481;43.406;24.454;2022-10-17T04:28:46;79300.44;;;-144.09;98.80
8890;BME280;4481;43.406;24.454;2022-10-17T04:31:13;79331.81;;;-144.09;99.71
8890;BME280;4481;43.406;24.454;2022-10-17T04:33:40;79338.09;;;-144.09;100.00
8890;BME280;4481;43.406;24.454;2022-10-17T04:36:10;79356.91;;;-144.09;100.00
8890;BME280;4481;43.406;24.454;2022-10-17T04:38:36;79365.28;;;-144.09;100.00
8890;BME280;4481;43.406;24.454;2022-10-17T04:41:09;79346.44;;;-144.09;100.00
8890;BME280;4481;43.406;24.454;2022-10-17T04:43:37;79348.53;;;-144.09;100.00
8890;BME280;4481;43.406;24.454;2022-10-17T04:46:07;79338.09;;;-144.09;100.00
8890;BME280;4481;43.406;24.454;2022-10-17T04:48:34;79306.72;;;-144.09;100.00
8890;BME280;4481;43.406;24.454;2022-10-17T04:51:02;79292.06;;;-144.09;99.26
8890;BME280;4481;43.406;24.454;2022-10-17T04:53:31;79279.53;;;-144.09;98.87
8890;BME280;4481;43.406;24.454;2022-10-17T04:55:58;79296.25;;;-144.09;99.30
8890;BME280;4481;43.406;24.454;2022-10-17T04:58:24;79308.81;;;-144.09;99.47
8890;BME280;4481;43.406;24.454;2022-10-17T05:00:51;79333.91;;;-144.09;100.00
8890;BME280;4481;43.406;24.454;2022-10-17T05:03:20;79344.34;;;-144.09;100.00
8890;BME280;4481;43.406;24.454;2022-10-17T05:05:47;79333.91;;;-144.09;99.85
8890;BME280;4481;43.406;24.454;2022-10-17T05:08:13;79331.81;;;-144.09;99.80
8890;BME280;4481;43.406;24.454;2022-10-17T05:10:41;79329.72;;;-144.09;99.36
8890;BME280;4481;43.406;24.454;2022-10-17T05:13:08;79323.44;;;-144.09;99.22
8890;BME280;4481;43.406;24.454;2022-10-17T05:15:35;79319.25;;;-144.09;99.11
8890;BME280;4481;43.406;24.454;2022-10-17T05:18:01;79306.72;;;-144.09;98.82
8890;BME280;4481;43.406;24.454;2022-10-17T05:20:27;79298.34;;;-144.09;98.92
8890;BME280;4481;43.406;24.454;2022-10-17T05:22:54;79306.72;;;-144.09;99.27
8890;BME280;4481;43.406;24.454;2022-10-17T05:25:21;79304.63;;;-144.09;99.47
8890;BME280;4481;43.406;24.454;2022-10-17T05:27:47;79290.00;;;-144.09;98.92
8890;BME280;4481;43.406;24.454;2022-10-17T05:30:13;79271.16;;;-144.09;98.64
8890;BME280;4481;43.406;24.454;2022-10-17T05:32:39;79279.53;;;-144.09;99.11
8890;BME280;4481;43.406;24.454;2022-10-17T05:35:06;79258.63;;;-144.09;98.85
8890;BME280;4481;43.406;24.454;2022-10-17T05:37:32;79248.16;;;-144.09;98.47
8890;BME280;4481;43.406;24.454;2022-10-17T05:39:59;79252.34;;;-144.09;99.07
8890;BME280;4481;43.406;24.454;2022-10-17T05:42:25;79250.25;;;-144.09;99.21
8890;BME280;4481;43.406;24.454;2022-10-17T05:44:51;79227.25;;;-144.09;98.75
8890;BME280;4481;43.406;24.454;2022-10-17T05:47:17;79235.63;;;-144.09;98.70
8890;BME280;4481;43.406;24.454;2022-10-17T05:49:44;79214.72;;;-144.09;98.33
8890;BME280;4481;43.406;24.454;2022-10-17T05:52:10;79195.88;;;-144.09;98.20
8890;BME280;4481;43.406;24.454;2022-10-17T05:54:36;79179.16;;;-144.09;98.15
8890;BME280;4481;43.406;24.454;2022-10-17T05:57:03;79168.69;;;-144.09;97.74
8890;BME280;4481;43.406;24.454;2022-10-17T05:59:29;79143.59;;;-144.09;97.19
8890;BME280;4481;43.406;24.454;2022-10-17T06:01:55;79135.25;;;-144.09;96.95
8890;BME280;4481;43.406;24.454;2022-10-17T06:04:21;79114.31;;;-144.09;96.86
8890;BME280;4481;43.406;24.454;2022-10-17T06:06:49;79091.31;;;-144.09;96.48
8890;BME280;4481;43.406;24.454;2022-10-17T06:09:15;79072.50;;;-144.09;96.50
8890;BME280;4481;43.406;24.454;2022-10-17T06:11:41;79041.13;;;-144.09;95.55
8890;BME280;4481;43.406;24.454;2022-10-17T06:14:08;79009.78;;;-144.09;95.15
8890;BME280;4481;43.406;24.454;2022-10-17T06:16:34;78997.22;;;-144.09;94.85
8890;BME280;4481;43.406;24.454;2022-10-17T06:19:01;78980.50;;;-144.09;94.55
8890;BME280;4481;43.406;24.454;2022-10-17T06:21:27;78957.50;;;-144.09;94.33
8890;BME280;4481;43.406;24.454;2022-10-17T06:23:53;78934.50;;;-144.09;93.75
8890;BME280;4481;43.406;24.454;2022-10-17T06:26:19;78915.69;;;-144.09;93.93
8890;BME280;4481;43.406;24.454;2022-10-17T06:28:46;78890.59;;;-144.09;93.15
8890;BME280;4481;43.406;24.454;2022-10-17T06:31:14;78867.59;;;-144.09;92.82
8890;BME280;4481;43.406;24.454;2022-10-17T06:33:41;78838.31;;;-144.09;92.32
8890;BME280;4481;43.406;24.454;2022-10-17T06:36:10;78806.94;;;-144.09;91.79
8890;BME280;4481;43.406;24.454;2022-10-17T06:38:37;78783.94;;;-144.09;91.42
8890;BME280;4481;43.406;24.454;2022-10-17T06:41:04;78756.78;;;-144.09;90.73
8890;BME280;4481;43.406;24.454;2022-10-17T06:43:33;78733.78;;;-144.09;90.23
8890;BME280;4481;43.406;24.454;2022-10-17T06:45:59;78710.78;;;-144.09;89.93
8890;BME280;4481;43.406;24.454;2022-10-17T06:48:26;78700.31;;;-144.09;89.15
8890;BME280;4481;43.406;24.454;2022-10-17T06:50:52;78714.94;;;-144.09;89.85
8890;BME280;4481;43.406;24.454;2022-10-17T06:53:19;78681.50;;;-144.09;89.26
8890;BME280;4481;43.406;24.454;2022-10-17T06:55:50;78633.41;;;-144.09;88.55
8890;BME280;4481;43.406;24.454;2022-10-17T06:58:16;78597.88;;;-144.09;87.68
8890;BME280;4481;43.406;24.454;2022-10-17T07:00:43;78570.69;;;-144.09;86.97
8890;BME280;4481;43.406;24.454;2022-10-17T07:03:09;78604.13;;;-144.09;87.69
8890;BME280;4481;43.406;24.454;2022-10-17T07:05:36;78574.88;;;-144.09;87.00
8890;BME280;4481;43.406;24.454;2022-10-17T07:08:03;78549.78;;;-144.09;86.99
8890;BME280;4481;43.406;24.454;2022-10-17T07:10:30;78510.06;;;-144.09;86.00
8890;BME280;4481;43.406;24.454;2022-10-17T07:12:56;78487.06;;;-144.09;85.67
8890;BME280;4481;43.406;24.454;2022-10-17T07:15:22;78455.69;;;-144.09;84.81
8890;BME280;4481;43.406;24.454;2022-10-17T07:17:48;78453.59;;;-144.09;84.05
8890;BME280;4481;43.406;24.454;2022-10-17T07:20:15;78434.78;;;-144.09;84.06
8890;BME280;4481;43.406;24.454;2022-10-17T07:22:43;78401.34;;;-144.09;83.23
8890;BME280;4481;43.406;24.454;2022-10-17T07:25:10;78374.16;;;-144.09;82.52
8890;BME280;4481;43.406;24.454;2022-10-17T07:27:36;78353.25;;;-144.09;82.44
8890;BME280;4481;43.406;24.454;2022-10-17T07:30:03;78330.25;;;-144.09;81.69
8890;BME280;4481;43.406;24.454;2022-10-17T07:32:29;78315.63;;;-144.09;81.42
8890;BME280;4481;43.406;24.454;2022-10-17T07:34:55;78290.53;;;-144.09;81.01
8890;BME280;4481;43.406;24.454;2022-10-17T07:37:21;78265.44;;;-144.09;80.70
8890;BME280;4481;43.406;24.454;2022-10-17T07:39:48;78246.63;;;-144.09;79.74
8890;BME280;4481;43.406;24.454;2022-10-17T07:42:14;78227.81;;;-144.09;79.82
8890;BME280;4481;43.406;24.454;2022-10-17T07:44:40;78206.91;;;-144.09;79.39
8890;BME280;4481;43.406;24.454;2022-10-17T07:47:07;78190.19;;;-144.09;78.79
8890;BME280;4481;43.406;24.454;2022-10-17T07:49:33;78171.38;;;-144.09;78.64
8890;BME280;4481;43.406;24.454;2022-10-17T07:51:59;78150.47;;;-144.09;77.86
8890;BME280;4481;43.406;24.454;2022-10-17T07:54:25;78150.47;;;-144.09;77.11
8890;BME280;4481;43.406;24.454;2022-10-17T07:56:52;78181.81;;;-144.09;77.75
8890;BME280;4481;43.406;24.454;2022-10-17T07:59:18;78177.63;;;-144.09;77.53
8890;BME280;4481;43.406;24.454;2022-10-17T08:01:45;78156.72;;;-144.09;77.24
8890;BME280;4481;43.406;24.454;2022-10-17T08:04:12;78148.38;;;-144.09;77.38
8890;BME280;4481;43.406;24.454;2022-10-17T08:06:41;78117.00;;;-144.09;77.40
8890;BME280;4481;43.406;24.454;2022-10-17T08:09:07;78104.47;;;-144.09;77.12
8890;BME280;4481;43.406;24.454;2022-10-17T08:11:34;78114.91;;;-144.09;76.98
8890;BME280;4481;43.406;24.454;2022-10-17T08:14:02;78106.56;;;-144.09;76.90
8890;BME280;4481;43.406;24.454;2022-10-17T08:16:29;78089.84;;;-144.09;76.45
8890;BME280;4481;43.406;24.454;2022-10-17T08:18:55;78045.94;;;-144.09;75.57
8890;BME280;4481;43.406;24.454;2022-10-17T08:21:22;78062.66;;;-144.09;76.17
8890;BME280;4481;43.406;24.454;2022-10-17T08:23:50;78020.84;;;-144.09;75.16
8890;BME280;4481;43.406;24.454;2022-10-17T08:26:18;77995.75;;;-144.09;74.72
8890;BME280;4481;43.406;24.454;2022-10-17T08:28:45;77985.31;;;-144.09;74.25
8890;BME280;4481;43.406;24.454;2022-10-17T08:31:15;77960.22;;;-144.09;72.99
8890;BME280;4481;43.406;24.454;2022-10-17T08:33:43;77993.69;;;-144.09;73.19
8890;BME280;4481;43.406;24.454;2022-10-17T08:36:12;77968.59;;;-144.09;72.74
8890;BME280;4481;43.406;24.454;2022-10-17T08:38:39;77968.59;;;-144.09;72.16
8890;BME280;4481;43.406;24.454;2022-10-17T08:41:13;77941.41;;;-144.09;71.66
8890;BME280;4481;43.406;24.454;2022-10-17T08:43:52;77983.22;;;-144.09;72.08
8890;BME280;4481;43.406;24.454;2022-10-17T08:46:22;77974.84;;;-144.09;72.62
8890;BME280;4481;43.406;24.454;2022-10-17T08:48:55;77933.06;;;-144.09;71.97
8890;BME280;4481;43.406;24.454;2022-10-17T08:51:27;77910.06;;;-144.09;70.23
8890;BME280;4481;43.406;24.454;2022-10-17T08:53:59;77895.44;;;-144.09;69.92
8890;BME280;4481;43.406;24.454;2022-10-17T08:56:32;77876.63;;;-144.09;68.23
8890;BME280;4481;43.406;24.454;2022-10-17T08:59:00;77859.88;;;-144.09;68.07
8890;BME280;4481;43.406;24.454;2022-10-17T09:01:34;77937.22;;;-144.09;68.48
8890;BME280;4481;43.406;24.454;2022-10-17T09:04:31;77905.88;;;-144.09;68.87
8890;BME280;4481;43.406;24.454;2022-10-17T09:07:06;77872.44;;;-144.09;68.13
8890;BME280;4481;43.406;24.454;2022-10-17T09:09:45;77876.63;;;-144.09;65.98
8890;BME280;4481;43.406;24.454;2022-10-17T09:12:19;77893.34;;;-144.09;66.36
8890;BME280;4481;43.406;24.454;2022-10-17T09:15:11;77878.69;;;-144.09;64.86
8890;BME280;4481;43.406;24.454;2022-10-17T09:17:50;77841.06;;;-144.09;64.39
8890;BME280;4481;43.406;24.454;2022-10-17T09:20:20;77830.63;;;-144.09;63.40
8890;BME280;4481;43.406;24.454;2022-10-17T09:22:55;77805.53;;;-144.09;61.61
8890;BME280;4481;43.406;24.454;2022-10-17T09:25:23;77795.09;;;-144.09;59.66
8890;BME280;4481;43.406;24.454;2022-10-17T09:27:52;77811.81;;;-144.09;58.37
8890;BME280;4481;43.406;24.454;2022-10-17T09:30:31;77807.63;;;-144.09;58.29
8890;BME280;4481;43.406;24.454;2022-10-17T09:32:59;77782.53;;;-144.09;56.33
8890;BME280;4481;43.406;24.454;2022-10-17T09:35:26;77778.38;;;-144.09;57.37
8890;BME280;4481;43.406;24.454;2022-10-17T09:37:54;77790.91;;;-144.09;55.72
8890;BME280;4481;43.406;24.454;2022-10-17T09:40:24;77772.09;;;-144.09;55.67
8890;BME280;4481;43.406;24.454;2022-10-17T09:42:51;77759.56;;;-144.09;57.16
8890;BME280;4481;43.406;24.454;2022-10-17T09:45:21;77755.38;;;-144.09;54.33
8890;BME280;4481;43.406;24.454;2022-10-17T09:48:03;77778.38;;;-144.09;54.01
8890;BME280;4481;43.406;24.454;2022-10-17T09:50:35;77780.47;;;-144.09;54.52
8890;BME280;4481;43.406;24.454;2022-10-17T09:53:05;77770.00;;;-144.09;54.23
8890;BME280;4481;43.406;24.454;2022-10-17T09:55:40;77751.19;;;-144.09;54.40
8890;BME280;4481;43.406;24.454;2022-10-17T09:58:08;77742.84;;;-144.09;55.12
8890;BME280;4481;43.406;24.454;2022-10-17T10:00:36;77740.75;;;-144.09;55.08
8890;BME280;4481;43.406;24.454;2022-10-17T10:03:13;77728.19;;;-144.09;54.22
8890;BME280;4481;43.406;24.454;2022-10-17T10:05:41;77749.09;;;-144.09;54.84
8890;BME280;4481;43.406;24.454;2022-10-17T10:08:14;77721.94;;;-144.09;54.34
8890;BME280;4481;43.406;24.454;2022-10-17T10:10:45;77705.22;;;-144.09;54.48
8890;BME280;4481;43.406;24.454;2022-10-17T10:13:26;77698.94;;;-144.09;53.41
8890;BME280;4481;43.406;24.454;2022-10-17T10:16:20;77686.41;;;-144.09;53.41
8890;BME280;4481;43.406;24.454;2022-10-17T10:18:50;77694.75;;;-144.09;52.47
8890;BME280;4481;43.406;24.454;2022-10-17T10:21:18;77698.94;;;-144.09;52.42
8890;BME280;4481;43.406;24.454;2022-10-17T10:24:01;77701.03;;;-144.09;51.66
8890;BME280;4481;43.406;24.454;2022-10-17T10:26:30;77692.66;;;-144.09;53.13
8890;BME280;4481;43.406;24.454;2022-10-17T10:28:59;77684.31;;;-144.09;51.86
8890;BME280;4481;43.406;24.454;2022-10-17T10:31:30;77682.22;;;-144.09;51.47
8890;BME280;4481;43.406;24.454;2022-10-17T10:34:00;77671.75;;;-144.09;51.81
8890;BME280;4481;43.406;24.454;2022-10-17T10:36:46;77678.03;;;-144.09;51.90
8890;BME280;4481;43.406;24.454;2022-10-17T10:39:24;77675.94;;;-144.09;52.47
8890;BME280;4481;43.406;24.454;2022-10-17T10:41:52;77655.03;;;-144.09;51.68
8890;BME280;4481;43.406;24.454;2022-10-17T10:44:21;77646.69;;;-144.09;52.70
8890;BME280;4481;43.406;24.454;2022-10-17T10:47:05;77657.13;;;-144.09;51.28
8890;BME280;4481;43.406;24.454;2022-10-17T10:49:32;77657.13;;;-144.09;53.21
8890;BME280;4481;43.406;24.454;2022-10-17T10:51:59;77640.41;;;-144.09;52.87
8890;BME280;4481;43.406;24.454;2022-10-17T10:54:31;77632.03;;;-144.09;52.26
8890;BME280;4481;43.406;24.454;2022-10-17T10:57:00;77634.13;;;-144.09;50.91
8890;BME280;4481;43.406;24.454;2022-10-17T10:59:31;77627.88;;;-144.09;51.05
8890;BME280;4481;43.406;24.454;2022-10-17T11:02:09;77619.50;;;-144.09;49.69
8890;BME280;4481;43.406;24.454;2022-10-17T11:04:42;77609.06;;;-144.09;49.33
8890;BME280;4481;43.406;24.454;2022-10-17T11:07:13;77613.25;;;-144.09;49.83
8890;BME280;4481;43.406;24.454;2022-10-17T11:09:47;77619.50;;;-144.09;49.49
8890;BME280;4481;43.406;24.454;2022-10-17T11:12:19;77623.69;;;-144.09;49.35
8890;BME280;4481;43.406;24.454;2022-10-17T11:14:52;77596.50;;;-144.09;49.98
8890;BME280;4481;43.406;24.454;2022-10-17T11:17:27;77604.88;;;-144.09;50.19
8890;BME280;4481;43.406;24.454;2022-10-17T11:20:06;77600.69;;;-144.09;49.55
8890;BME280;4481;43.406;24.454;2022-10-17T11:22:38;77600.69;;;-144.09;48.57
8890;BME280;4481;43.406;24.454;2022-10-17T11:25:17;77598.59;;;-144.09;49.25
8890;BME280;4481;43.406;24.454;2022-10-17T11:27:45;77588.16;;;-144.09;49.63
8890;BME280;4481;43.406;24.454;2022-10-17T11:30:12;77573.53;;;-144.09;49.60
8890;BME280;4481;43.406;24.454;2022-10-17T11:32:42;77565.16;;;-144.09;49.29
8890;BME280;4481;43.406;24.454;2022-10-17T11:35:19;77575.63;;;-144.09;48.63
8890;BME280;4481;43.406;24.454;2022-10-17T11:37:52;77565.16;;;-144.09;49.26
8890;BME280;4481;43.406;24.454;2022-10-17T11:40:26;77554.72;;;-144.09;47.89
8890;BME280;4481;43.406;24.454;2022-10-17T11:42:58;77529.63;;;-144.09;48.40
8890;BME280;4481;43.406;24.454;2022-10-17T11:45:28;77529.63;;;-144.09;48.84
8890;BME280;4481;43.406;24.454;2022-10-17T11:48:05;77538.00;;;-144.09;47.26
8890;BME280;4481;43.406;24.454;2022-10-17T11:50:39;77527.53;;;-144.09;48.23
8890;BME280;4481;43.406;24.454;2022-10-17T11:53:12;77542.16;;;-144.09;46.00
8890;BME280;4481;43.406;24.454;2022-10-17T11:55:39;77548.44;;;-144.09;47.11
8890;BME280;4481;43.406;24.454;2022-10-17T11:58:22;77548.44;;;-144.09;47.93
8890;BME280;4481;43.406;24.454;2022-10-17T12:00:57;77533.81;;;-144.09;47.42
8890;BME280;4481;43.406;24.454;2022-10-17T12:03:38;77542.16;;;-144.09;47.00
8890;BME280;4481;43.406;24.454;2022-10-17T12:06:12;77554.72;;;-144.09;46.86
8890;BME280;4481;43.406;24.454;2022-10-17T12:08:44;77531.72;;;-144.09;45.68
8890;BME280;4481;43.406;24.454;2022-10-17T12:11:31;77512.91;;;-144.09;45.90
8890;BME280;4481;43.406;24.454;2022-10-17T12:14:00;77517.09;;;-144.09;45.19
8890;BME280;4481;43.406;24.454;2022-10-17T12:19:26;77519.19;;;-144.09;45.39
8890;BME280;4481;43.406;24.454;2022-10-17T12:22:17;77512.91;;;-144.09;44.47
8890;BME280;4481;43.406;24.454;2022-10-17T12:24:51;77489.91;;;-144.09;44.09
8890;BME280;4481;43.406;24.454;2022-10-17T12:27:36;77521.28;;;-144.09;44.20
8890;BME280;4481;43.406;24.454;2022-10-17T12:30:13;77517.09;;;-144.09;44.52
8890;BME280;4481;43.406;24.454;2022-10-17T12:32:53;77496.19;;;-144.09;45.03
8890;BME280;4481;43.406;24.454;2022-10-17T12:35:22;77475.28;;;-144.09;44.86
8890;BME280;4481;43.406;24.454;2022-10-17T12:38:23;77502.47;;;-144.09;44.98
8890;BME280;4481;43.406;24.454;2022-10-17T12:40:58;77492.00;;;-144.09;45.16
8890;BME280;4481;43.406;24.454;2022-10-17T12:43:51;77494.09;;;-144.09;45.59
8890;BME280;4481;43.406;24.454;2022-10-17T12:46:46;77466.94;;;-144.09;45.32
8890;BME280;4481;43.406;24.454;2022-10-17T12:49:41;77469.00;;;-144.09;43.84
8890;BME280;4481;43.406;24.454;2022-10-17T12:52:26;77452.28;;;-144.09;42.04
8890;BME280;4481;43.406;24.454;2022-10-17T12:54:59;77458.56;;;-144.09;42.23
8890;BME280;4481;43.406;24.454;2022-10-17T12:57:31;77469.00;;;-144.09;41.59
8890;BME280;4481;43.406;24.454;2022-10-17T13:00:00;77469.00;;;-144.09;42.25
8890;BME280;4481;43.406;24.454;2022-10-17T13:02:28;77492.00;;;-144.09;40.77
8890;BME280;4481;43.406;24.454;2022-10-17T13:05:06;77477.38;;;-144.09;42.75
8890;BME280;4481;43.406;24.454;2022-10-17T13:07:34;77462.75;;;-144.09;41.72
8890;BME280;4481;43.406;24.454;2022-10-17T13:10:03;77475.28;;;-144.09;43.55
8890;BME280;4481;43.406;24.454;2022-10-17T13:12:32;77487.81;;;-144.09;44.08
8890;BME280;4481;43.406;24.454;2022-10-17T13:15:03;77494.09;;;-144.09;39.59